Time;durP1;ratioP1;P1;durP2;ratioP2;P2;SDS_P1;SDS_P2;PMS_P1;PMS_P2;Temp;Humidity;BMP_temperature;BMP_pressure;BME280_temperature;BME280_humidity;BME280_pressure;Samples;Min_cycle;Max_cycle;Signal;HPM_P1;HPM_P2
2023/02/13 00:00:45;;;;;;;12.82;11.85;;;;;;;;;;4997002;28;20042;-67
2023/02/13 00:03:10;;;;;;;12.90;12.10;;;;;;;;;;4994558;28;20042;-67
2023/02/13 00:05:36;;;;;;;12.18;11.38;;;;;;;;;;4995022;28;20209;-67
2023/02/13 00:08:01;;;;;;;12.38;11.63;;;;;;;;;;4993621;28;20082;-67
2023/02/13 00:10:26;;;;;;;13.48;12.57;;;;;;;;;;4997212;28;20483;-67
2023/02/13 00:12:52;;;;;;;14.57;13.40;;;;;;;;;;4993747;28;20058;-67
2023/02/13 00:15:17;;;;;;;12.02;11.23;;;;;;;;;;4996429;28;20128;-67
2023/02/13 00:17:42;;;;;;;12.07;11.23;;;;;;;;;;4995648;28;20097;-67
2023/02/13 00:20:09;;;;;;;12.48;11.57;;;;;;;;;;4996485;28;20044;-67
2023/02/13 00:22:35;;;;;;;17.48;14.70;;;;;;;;;;4996967;28;20033;-67
2023/02/13 00:25:03;;;;;;;14.10;13.18;;;;;;;;;;4993515;28;20129;-67
2023/02/13 00:27:28;;;;;;;18.05;16.45;;;;;;;;;;4993315;28;20409;-67
2023/02/13 00:29:53;;;;;;;16.45;14.93;;;;;;;;;;4995991;28;20113;-68
2023/02/13 00:32:18;;;;;;;19.65;16.85;;;;;;;;;;4995620;28;20140;-68
2023/02/13 00:34:44;;;;;;;13.25;12.20;;;;;;;;;;4997199;28;20033;-68
2023/02/13 00:37:09;;;;;;;11.60;10.90;;;;;;;;;;4995454;28;20048;-68
2023/02/13 00:39:35;;;;;;;13.05;12.00;;;;;;;;;;4995350;28;20524;-67
2023/02/13 00:42:04;;;;;;;16.00;13.15;;;;;;;;;;4993593;28;20681;-68
2023/02/13 00:44:29;;;;;;;12.85;11.95;;;;;;;;;;4995373;28;20624;-67
2023/02/13 00:46:54;;;;;;;12.32;11.52;;;;;;;;;;4992197;28;20042;-67
2023/02/13 00:49:20;;;;;;;15.60;14.30;;;;;;;;;;4995947;28;20045;-67
2023/02/13 00:51:45;;;;;;;16.75;15.13;;;;;;;;;;4993884;28;20745;-68
2023/02/13 00:54:11;;;;;;;17.70;16.30;;;;;;;;;;4992263;28;20561;-67
2023/02/13 00:56:36;;;;;;;14.27;13.15;;;;;;;;;;4995941;28;20077;-67
2023/02/13 00:59:02;;;;;;;11.88;11.07;;;;;;;;;;4993383;28;20121;-68
2023/02/13 01:01:27;;;;;;;11.88;11.10;;;;;;;;;;4997693;28;20053;-67
2023/02/13 01:03:52;;;;;;;12.43;11.52;;;;;;;;;;4995465;28;20327;-67
2023/02/13 01:06:18;;;;;;;10.80;10.00;;;;;;;;;;4992867;28;20053;-68
2023/02/13 01:08:43;;;;;;;11.60;10.85;;;;;;;;;;4995361;28;20464;-68
2023/02/13 01:11:09;;;;;;;12.45;11.52;;;;;;;;;;4994723;28;20980;-67
2023/02/13 01:13:34;;;;;;;16.48;11.85;;;;;;;;;;4995723;28;20435;-68
2023/02/13 01:15:59;;;;;;;10.80;10.10;;;;;;;;;;4992154;28;20042;-68
2023/02/13 01:18:25;;;;;;;11.75;10.85;;;;;;;;;;4995455;28;20034;-68
2023/02/13 01:20:58;;;;;;;10.18;9.55;;;;;;;;;;4996252;28;20044;-68
2023/02/13 01:23:23;;;;;;;11.75;10.88;;;;;;;;;;4996240;28;20049;-68
2023/02/13 01:25:50;;;;;;;11.98;11.13;;;;;;;;;;4992494;28;20038;-68
2023/02/13 01:28:16;;;;;;;11.57;10.77;;;;;;;;;;4994994;28;20049;-66
2023/02/13 01:30:41;;;;;;;11.95;11.05;;;;;;;;;;4992008;28;20038;-68
2023/02/13 01:33:09;;;;;;;11.90;11.10;;;;;;;;;;4994260;28;20433;-68
2023/02/13 01:35:38;;;;;;;11.38;10.57;;;;;;;;;;4992891;28;20045;-68
2023/02/13 01:38:03;;;;;;;11.45;10.68;;;;;;;;;;4993459;28;20395;-68
2023/02/13 01:40:29;;;;;;;11.90;11.10;;;;;;;;;;4993991;28;20030;-68
2023/02/13 01:42:54;;;;;;;11.90;11.10;;;;;;;;;;4995967;28;20029;-68
2023/02/13 01:45:28;;;;;;;13.45;12.45;;;;;;;;;;4993961;28;20422;-68
2023/02/13 01:48:07;;;;;;;10.95;10.20;;;;;;;;;;4975902;28;20062;-63
2023/02/13 01:50:39;;;;;;;11.55;10.85;;;;;;;;;;4995580;28;20088;-63
2023/02/13 01:53:39;;;;;;;12.30;11.50;;;;;;;;;;4993620;28;20018;-63
2023/02/13 01:56:20;;;;;;;11.43;10.60;;;;;;;;;;4986612;28;20556;-62
2023/02/13 01:58:50;;;;;;;12.17;11.27;;;;;;;;;;4996260;28;20130;-63
2023/02/13 02:01:16;;;;;;;11.88;10.73;;;;;;;;;;4996260;28;20037;-63
2023/02/13 02:03:46;;;;;;;12.20;11.40;;;;;;;;;;4994555;28;20483;-63
2023/02/13 02:06:19;;;;;;;10.75;10.07;;;;;;;;;;4995697;28;20065;-63
2023/02/13 02:08:47;;;;;;;12.90;12.10;;;;;;;;;;4992950;28;20026;-63
2023/02/13 02:11:21;;;;;;;10.50;9.90;;;;;;;;;;4993398;28;20084;-62
2023/02/13 02:13:47;;;;;;;12.35;11.48;;;;;;;;;;4993798;28;20339;-63
2023/02/13 02:16:12;;;;;;;11.63;10.90;;;;;;;;;;5001145;28;20034;-63
2023/02/13 02:18:38;;;;;;;12.15;11.20;;;;;;;;;;4994761;28;20356;-63
2023/02/13 02:21:09;;;;;;;11.93;11.13;;;;;;;;;;4995460;28;20030;-63
2023/02/13 02:23:53;;;;;;;13.38;12.48;;;;;;;;;;4992738;28;20121;-63
2023/02/13 02:26:35;;;;;;;13.48;12.57;;;;;;;;;;4994087;28;20066;-63
2023/02/13 02:29:28;;;;;;;12.27;11.48;;;;;;;;;;4992462;28;20041;-62
2023/02/13 02:32:06;;;;;;;12.15;11.35;;;;;;;;;;4993130;28;20061;-63
2023/02/13 02:34:59;;;;;;;12.75;11.85;;;;;;;;;;4992278;28;20356;-62
2023/02/13 02:37:27;;;;;;;12.68;11.88;;;;;;;;;;4997995;28;20479;-63
2023/02/13 02:40:22;;;;;;;12.30;11.52;;;;;;;;;;4991929;28;20046;-63
2023/02/13 02:43:07;;;;;;;12.68;11.77;;;;;;;;;;4992375;28;20092;-63
2023/02/13 02:45:50;;;;;;;11.90;11.10;;;;;;;;;;4992373;28;20111;-63
2023/02/13 02:51:16;;;;;;;12.20;11.40;;;;;;;;;;4994742;28;20112;-62
2023/02/13 02:53:52;;;;;;;12.75;11.80;;;;;;;;;;4992156;28;20034;-62
2023/02/13 02:56:34;;;;;;;12.32;11.45;;;;;;;;;;4992360;28;20196;-61
2023/02/13 03:07:27;;;;;;;12.88;12.07;;;;;;;;;;4994304;28;20068;-62
2023/02/13 03:15:28;;;;;;;12.52;11.63;;;;;;;;;;4994103;28;20034;-62
2023/02/13 03:24:06;;;;;;;12.55;11.65;;;;;;;;;;4995092;28;20026;-62
2023/02/13 03:26:49;;;;;;;11.90;11.10;;;;;;;;;;4995453;28;20107;-62
2023/02/13 03:32:24;;;;;;;19.13;17.20;;;;;;;;;;4992452;28;20030;-62
2023/02/13 03:38:07;;;;;;;12.27;11.27;;;;;;;;;;4995835;28;20037;-62
2023/02/13 03:41:17;;;;;;;13.35;12.45;;;;;;;;;;4998297;28;20040;-62
2023/02/13 03:43:28;;;;;;;12.15;11.35;;;;;;;;;;4998248;28;20122;-62
2023/02/13 03:45:57;;;;;;;12.90;11.95;;;;;;;;;;4996731;28;20372;-61
2023/02/13 03:51:29;;;;;;;11.52;10.75;;;;;;;;;;4996927;28;20049;-62
2023/02/13 03:54:00;;;;;;;11.77;10.98;;;;;;;;;;4996634;28;20084;-63
2023/02/13 03:59:19;;;;;;;11.40;10.63;;;;;;;;;;5000217;28;19927;-63
2023/02/13 04:01:52;;;;;;;12.35;11.45;;;;;;;;;;4996869;28;20030;-63
2023/02/13 04:04:28;;;;;;;11.05;10.35;;;;;;;;;;4994227;28;20592;-63
2023/02/13 04:07:01;;;;;;;10.32;9.73;;;;;;;;;;4994598;28;20034;-62
2023/02/13 04:09:29;;;;;;;12.45;11.65;;;;;;;;;;4998392;28;20120;-62
2023/02/13 04:12:02;;;;;;;10.55;9.70;;;;;;;;;;4997147;28;20042;-62
2023/02/13 04:14:44;;;;;;;9.10;8.50;;;;;;;;;;5003274;28;20513;-63
2023/02/13 04:17:20;;;;;;;10.02;9.32;;;;;;;;;;4995694;28;20038;-61
2023/02/13 04:19:46;;;;;;;9.80;9.18;;;;;;;;;;4995471;28;20678;-62
2023/02/13 04:22:11;;;;;;;14.23;13.15;;;;;;;;;;4994137;28;20074;-61
2023/02/13 04:24:37;;;;;;;12.02;11.02;;;;;;;;;;4994892;28;20030;-62
2023/02/13 04:27:02;;;;;;;10.35;9.55;;;;;;;;;;4993854;28;20034;-62
2023/02/13 04:29:28;;;;;;;12.93;11.95;;;;;;;;;;4995065;28;20665;-62
2023/02/13 04:31:53;;;;;;;11.52;9.65;;;;;;;;;;4994600;28;20029;-62
2023/02/13 04:34:18;;;;;;;11.40;10.60;;;;;;;;;;4996100;28;20456;-62
2023/02/13 04:36:44;;;;;;;10.15;9.45;;;;;;;;;;4997402;28;20037;-61
2023/02/13 04:39:10;;;;;;;10.15;9.50;;;;;;;;;;4996630;28;20076;-61
2023/02/13 04:41:36;;;;;;;10.90;10.10;;;;;;;;;;4994588;28;20334;-62
2023/02/13 04:44:01;;;;;;;10.63;9.93;;;;;;;;;;4994042;28;20103;-62
2023/02/13 04:46:26;;;;;;;13.63;11.38;;;;;;;;;;4992516;28;20046;-63
2023/02/13 04:48:52;;;;;;;17.05;11.38;;;;;;;;;;4994820;28;20460;-62
2023/02/13 04:51:17;;;;;;;10.55;9.85;;;;;;;;;;4995309;28;20034;-62
2023/02/13 04:53:42;;;;;;;11.95;11.13;;;;;;;;;;4997586;28;20379;-62
2023/02/13 04:56:08;;;;;;;12.05;11.00;;;;;;;;;;4994010;28;20034;-62
2023/02/13 04:58:33;;;;;;;12.20;11.35;;;;;;;;;;4994003;28;20042;-62
2023/02/13 05:00:58;;;;;;;12.32;11.43;;;;;;;;;;4997811;28;20034;-62
2023/02/13 05:03:24;;;;;;;12.25;11.40;;;;;;;;;;4994911;28;20065;-62
2023/02/13 05:05:49;;;;;;;11.40;10.70;;;;;;;;;;4998784;28;20030;-62
2023/02/13 05:08:15;;;;;;;12.57;11.70;;;;;;;;;;4981455;28;20096;-62
2023/02/13 05:10:40;;;;;;;11.65;10.93;;;;;;;;;;4995906;28;20026;-62
2023/02/13 05:13:06;;;;;;;13.55;12.07;;;;;;;;;;4995781;28;20502;-61
2023/02/13 05:15:31;;;;;;;11.23;10.52;;;;;;;;;;4993471;28;20030;-62
2023/02/13 05:17:56;;;;;;;11.98;11.05;;;;;;;;;;4994384;28;20030;-62
2023/02/13 05:20:22;;;;;;;11.63;10.23;;;;;;;;;;4993274;28;20051;-61
2023/02/13 05:25:35;;;;;;;11.18;10.48;;;;;;;;;;4996985;28;20064;-61
2023/02/13 05:28:00;;;;;;;10.63;9.82;;;;;;;;;;4992787;28;20026;-62
2023/02/13 05:30:26;;;;;;;10.95;10.20;;;;;;;;;;4994590;28;20034;-62
2023/02/13 05:32:53;;;;;;;9.88;9.25;;;;;;;;;;4997087;28;20030;-62
2023/02/13 05:35:20;;;;;;;10.18;9.48;;;;;;;;;;4997631;28;20543;-62
2023/02/13 05:37:45;;;;;;;10.95;10.05;;;;;;;;;;4995632;28;20125;-61
2023/02/13 05:40:12;;;;;;;11.35;10.45;;;;;;;;;;4992486;28;20050;-62
2023/02/13 05:42:41;;;;;;;12.15;11.20;;;;;;;;;;4993497;28;20045;-61
2023/02/13 05:45:07;;;;;;;11.55;10.63;;;;;;;;;;4993011;28;20579;-61
2023/02/13 05:47:33;;;;;;;10.68;9.98;;;;;;;;;;4994494;28;20516;-61
2023/02/13 05:49:58;;;;;;;11.35;10.57;;;;;;;;;;4995726;28;20026;-62
2023/02/13 05:52:23;;;;;;;11.77;10.88;;;;;;;;;;4994597;28;20109;-62
2023/02/13 05:54:49;;;;;;;10.95;10.25;;;;;;;;;;4990655;28;20165;-62
2023/02/13 05:57:14;;;;;;;12.18;11.18;;;;;;;;;;4994424;28;20467;-62
2023/02/13 05:59:39;;;;;;;11.52;10.73;;;;;;;;;;4994776;28;20713;-62
2023/02/13 06:02:05;;;;;;;11.20;10.27;;;;;;;;;;4991094;28;20042;-62
2023/02/13 06:04:30;;;;;;;12.65;11.60;;;;;;;;;;4995829;28;20038;-62
2023/02/13 06:06:56;;;;;;;11.45;10.65;;;;;;;;;;4993219;28;20095;-62
2023/02/13 06:09:21;;;;;;;10.68;9.98;;;;;;;;;;4982467;28;20554;-61
2023/02/13 06:11:46;;;;;;;11.27;10.52;;;;;;;;;;4995693;28;20084;-62
2023/02/13 06:14:13;;;;;;;11.25;10.27;;;;;;;;;;4993909;28;20057;-61
2023/02/13 06:16:39;;;;;;;11.43;10.57;;;;;;;;;;4993453;28;20034;-62
2023/02/13 06:19:04;;;;;;;11.00;10.30;;;;;;;;;;4995490;28;20056;-62
2023/02/13 06:21:29;;;;;;;11.27;10.38;;;;;;;;;;4996228;28;20060;-61
2023/02/13 06:23:55;;;;;;;10.45;9.80;;;;;;;;;;4995485;28;20109;-61
2023/02/13 06:26:20;;;;;;;11.05;10.35;;;;;;;;;;4993477;28;20048;-62
2023/02/13 06:28:46;;;;;;;10.13;9.43;;;;;;;;;;4991564;28;20038;-62
2023/02/13 06:31:11;;;;;;;11.05;10.35;;;;;;;;;;4992505;28;20046;-62
2023/02/13 06:33:36;;;;;;;11.30;10.45;;;;;;;;;;4996087;28;20022;-62
2023/02/13 06:36:02;;;;;;;10.85;10.10;;;;;;;;;;4993171;28;20033;-62
2023/02/13 06:38:27;;;;;;;10.98;10.15;;;;;;;;;;4993447;28;20033;-60
2023/02/13 06:41:01;;;;;;;11.55;10.75;;;;;;;;;;4991489;28;20053;-62
2023/02/13 06:43:27;;;;;;;12.57;11.57;;;;;;;;;;4993837;28;20739;-62
2023/02/13 06:45:52;;;;;;;11.15;10.13;;;;;;;;;;4992909;28;20061;-62
2023/02/13 06:48:18;;;;;;;9.95;9.25;;;;;;;;;;4991755;28;20053;-62
2023/02/13 06:50:44;;;;;;;10.52;9.70;;;;;;;;;;4995895;28;21227;-62
2023/02/13 06:53:09;;;;;;;11.98;11.07;;;;;;;;;;4990234;28;20042;-62
2023/02/13 06:55:38;;;;;;;11.15;10.35;;;;;;;;;;4993548;28;20037;-64
2023/02/13 06:58:03;;;;;;;10.77;10.07;;;;;;;;;;4994649;28;20054;-63
2023/02/13 07:00:28;;;;;;;10.63;9.93;;;;;;;;;;4990468;28;20629;-64
2023/02/13 07:02:54;;;;;;;9.90;8.77;;;;;;;;;;4993272;28;20045;-63
2023/02/13 07:05:19;;;;;;;10.68;9.88;;;;;;;;;;4991742;28;20748;-64
2023/02/13 07:07:44;;;;;;;10.57;9.88;;;;;;;;;;4993561;28;20454;-63
2023/02/13 07:10:12;;;;;;;11.38;10.48;;;;;;;;;;4990778;28;20040;-64
2023/02/13 07:12:38;;;;;;;10.88;10.18;;;;;;;;;;4994318;28;20034;-64
2023/02/13 07:15:04;;;;;;;13.10;11.85;;;;;;;;;;4996070;28;20034;-62
2023/02/13 07:17:30;;;;;;;10.73;10.02;;;;;;;;;;4992787;28;20057;-63
2023/02/13 07:19:56;;;;;;;13.70;10.88;;;;;;;;;;4998076;28;20809;-63
2023/02/13 07:22:21;;;;;;;11.57;10.68;;;;;;;;;;4997437;28;21320;-64
2023/02/13 07:24:46;;;;;;;10.40;9.60;;;;;;;;;;4990547;28;20460;-64
2023/02/13 07:27:12;;;;;;;10.90;10.05;;;;;;;;;;4994830;28;20638;-64
2023/02/13 07:29:37;;;;;;;11.02;10.18;;;;;;;;;;4996155;28;20061;-64
2023/02/13 07:32:02;;;;;;;12.25;11.18;;;;;;;;;;4995338;28;20038;-64
2023/02/13 07:34:28;;;;;;;11.40;10.60;;;;;;;;;;4995523;28;20034;-61
2023/02/13 07:36:53;;;;;;;10.48;9.77;;;;;;;;;;4997381;28;20333;-61
2023/02/13 07:39:18;;;;;;;11.27;10.48;;;;;;;;;;4995650;28;20108;-64
2023/02/13 07:41:44;;;;;;;11.85;11.05;;;;;;;;;;4996832;28;20055;-68
2023/02/13 07:44:09;;;;;;;13.05;12.25;;;;;;;;;;4996067;28;20069;-69
2023/02/13 07:46:35;;;;;;;13.23;12.32;;;;;;;;;;4995982;28;20056;-64
2023/02/13 07:49:00;;;;;;;13.77;12.88;;;;;;;;;;4990970;28;20080;-64
2023/02/13 07:51:27;;;;;;;13.50;12.60;;;;;;;;;;4995085;28;20042;-64
2023/02/13 07:53:53;;;;;;;15.10;14.10;;;;;;;;;;4990684;28;20033;-64
2023/02/13 07:56:19;;;;;;;15.55;14.45;;;;;;;;;;4990678;28;20065;-63
2023/02/13 07:58:45;;;;;;;13.88;12.98;;;;;;;;;;4995402;28;20045;-64
2023/02/13 08:01:15;;;;;;;15.32;14.23;;;;;;;;;;4996007;28;20501;-64
2023/02/13 08:03:41;;;;;;;14.10;12.98;;;;;;;;;;4992990;28;20522;-65
2023/02/13 08:06:08;;;;;;;14.23;13.10;;;;;;;;;;4992675;28;20042;-64
2023/02/13 08:08:34;;;;;;;12.70;11.70;;;;;;;;;;5003507;28;20049;-64
2023/02/13 08:14:00;;;;;;;12.25;11.43;;;;;;;;;;4995441;28;20030;-64
2023/02/13 08:16:25;;;;;;;12.18;11.38;;;;;;;;;;4996622;28;20053;-64
2023/02/13 08:18:50;;;;;;;12.80;11.90;;;;;;;;;;4992559;28;20029;-64
2023/02/13 08:21:16;;;;;;;13.23;12.32;;;;;;;;;;4993418;28;20034;-64
2023/02/13 08:23:41;;;;;;;13.75;12.65;;;;;;;;;;4997253;28;20437;-64
2023/02/13 08:26:06;;;;;;;13.15;12.20;;;;;;;;;;4993343;28;20053;-64
2023/02/13 08:28:32;;;;;;;13.82;12.82;;;;;;;;;;4998651;28;20037;-64
2023/02/13 08:30:57;;;;;;;14.05;13.02;;;;;;;;;;4996117;28;20539;-64
2023/02/13 08:33:22;;;;;;;13.85;12.95;;;;;;;;;;4995569;28;20040;-64
2023/02/13 08:35:48;;;;;;;15.63;14.63;;;;;;;;;;4996566;28;20044;-65
2023/02/13 08:38:13;;;;;;;16.05;14.85;;;;;;;;;;4993206;28;20053;-64
2023/02/13 08:40:38;;;;;;;14.45;13.38;;;;;;;;;;4994486;28;20034;-64
2023/02/13 08:43:05;;;;;;;13.45;12.65;;;;;;;;;;4993966;28;20070;-64
2023/02/13 08:45:32;;;;;;;12.88;11.98;;;;;;;;;;4993384;28;20034;-65
2023/02/13 08:47:58;;;;;;;13.55;12.55;;;;;;;;;;5000534;28;20029;-65
2023/02/13 08:50:25;;;;;;;14.38;13.48;;;;;;;;;;4992673;28;20041;-63
2023/02/13 08:52:51;;;;;;;13.25;12.45;;;;;;;;;;4994359;28;20181;-64
2023/02/13 08:55:16;;;;;;;11.55;10.80;;;;;;;;;;4995145;28;20125;-64
2023/02/13 08:57:41;;;;;;;12.82;11.93;;;;;;;;;;4996002;28;20034;-64
2023/02/13 09:00:08;;;;;;;12.38;11.48;;;;;;;;;;4994158;28;20065;-68
2023/02/13 09:02:33;;;;;;;12.80;11.82;;;;;;;;;;4993757;28;20112;-68
2023/02/13 09:04:58;;;;;;;13.05;12.13;;;;;;;;;;4995826;28;20133;-67
2023/02/13 09:07:24;;;;;;;12.32;11.35;;;;;;;;;;4994327;28;20357;-67
2023/02/13 09:09:49;;;;;;;12.45;11.65;;;;;;;;;;4997405;28;20042;-68
2023/02/13 09:12:15;;;;;;;12.73;11.82;;;;;;;;;;4995231;28;20041;-68
2023/02/13 09:14:40;;;;;;;11.07;10.38;;;;;;;;;;4993623;28;20030;-68
2023/02/13 09:17:05;;;;;;;12.15;11.35;;;;;;;;;;4993724;28;20053;-68
2023/02/13 09:19:30;;;;;;;12.10;11.40;;;;;;;;;;4995135;28;20034;-68
2023/02/13 09:21:56;;;;;;;12.82;12.00;;;;;;;;;;4995518;28;20097;-68
2023/02/13 09:24:21;;;;;;;12.68;11.85;;;;;;;;;;4992856;28;20100;-68
2023/02/13 09:26:46;;;;;;;12.68;11.82;;;;;;;;;;4993606;28;20530;-68
2023/02/13 09:29:12;;;;;;;13.45;12.55;;;;;;;;;;4995402;28;20038;-68
2023/02/13 09:31:37;;;;;;;12.80;11.93;;;;;;;;;;4995900;28;20107;-68
2023/02/13 09:34:02;;;;;;;12.77;11.95;;;;;;;;;;4993221;28;20064;-68
2023/02/13 09:36:28;;;;;;;13.27;12.43;;;;;;;;;;4990512;28;20041;-68
2023/02/13 09:38:55;;;;;;;12.38;11.48;;;;;;;;;;4991187;28;20666;-68
2023/02/13 09:41:29;;;;;;;11.75;10.95;;;;;;;;;;4992750;28;20460;-68
2023/02/13 09:43:58;;;;;;;12.77;12.00;;;;;;;;;;4994931;28;20475;-68
2023/02/13 09:46:29;;;;;;;13.20;12.20;;;;;;;;;;4993828;28;20048;-67
2023/02/13 09:48:58;;;;;;;11.90;11.20;;;;;;;;;;4994537;28;20029;-68
2023/02/13 09:51:25;;;;;;;11.85;11.10;;;;;;;;;;4993444;28;20062;-68
2023/02/13 09:53:59;;;;;;;11.38;10.68;;;;;;;;;;4993173;28;20038;-67
2023/02/13 09:56:30;;;;;;;11.30;10.52;;;;;;;;;;4993816;28;20038;-67
2023/02/13 09:59:16;;;;;;;12.18;11.35;;;;;;;;;;4992689;28;20400;-67
2023/02/13 10:01:46;;;;;;;12.65;11.82;;;;;;;;;;4984144;28;20141;-67
2023/02/13 10:04:21;;;;;;;;;;;;;;;;;;4993276;28;20057;-68
2023/02/13 10:06:57;;;;;;;13.15;12.30;;;;;;;;;;4997704;28;19913;-68
2023/02/13 10:09:52;;;;;;;12.15;11.35;;;;;;;;;;4994000;28;20044;-68
2023/02/13 10:12:24;;;;;;;12.55;11.75;;;;;;;;;;4990272;28;20052;-67
2023/02/13 10:15:10;;;;;;;12.82;11.90;;;;;;;;;;4990544;28;20022;-67
2023/02/13 10:17:39;;;;;;;13.20;12.40;;;;;;;;;;4994585;28;20044;-67
2023/02/13 10:20:14;;;;;;;12.98;12.18;;;;;;;;;;4993270;28;20408;-68
2023/02/13 10:22:51;;;;;;;13.98;13.18;;;;;;;;;;4992636;28;20033;-68
2023/02/13 10:25:38;;;;;;;14.32;13.25;;;;;;;;;;4991343;28;20041;-68
2023/02/13 10:28:13;;;;;;;13.77;12.98;;;;;;;;;;4991507;28;20026;-68
2023/02/13 10:30:50;;;;;;;16.50;14.25;;;;;;;;;;4993324;28;20531;-68
2023/02/13 10:33:20;;;;;;;14.18;13.18;;;;;;;;;;4993914;28;20709;-68
2023/02/13 10:35:57;;;;;;;13.82;12.93;;;;;;;;;;4992806;28;20120;-68
2023/02/13 10:38:24;;;;;;;13.27;12.48;;;;;;;;;;5001411;28;20038;-68
2023/02/13 10:41:04;;;;;;;13.63;12.73;;;;;;;;;;4994687;28;20532;-74
2023/02/13 10:43:48;;;;;;;13.90;12.97;;;;;;;;;;4993467;28;20046;-68
2023/02/13 10:46:24;;;;;;;13.23;12.32;;;;;;;;;;4996262;28;20057;-68
2023/02/13 10:48:56;;;;;;;12.73;11.82;;;;;;;;;;4997479;28;20123;-68
2023/02/13 10:51:48;;;;;;;13.05;12.18;;;;;;;;;;4996809;28;20044;-68
2023/02/13 10:54:28;;;;;;;13.40;12.50;;;;;;;;;;4998242;28;20030;-68
2023/02/13 10:57:05;;;;;;;12.18;11.43;;;;;;;;;;4997686;28;20034;-68
2023/02/13 10:59:49;;;;;;;13.80;12.90;;;;;;;;;;4993576;28;20034;-68
2023/02/13 11:02:28;;;;;;;12.95;12.15;;;;;;;;;;5004486;28;20076;-68
2023/02/13 11:05:16;;;;;;;14.52;13.60;;;;;;;;;;4995786;28;20034;-68
2023/02/13 11:07:42;;;;;;;13.90;13.00;;;;;;;;;;4996572;28;20072;-68
2023/02/13 11:10:22;;;;;;;15.68;14.68;;;;;;;;;;4999139;28;20038;-68
2023/02/13 11:12:48;;;;;;;14.40;13.40;;;;;;;;;;4996270;28;20033;-69
2023/02/13 11:15:29;;;;;;;13.30;12.50;;;;;;;;;;4995679;28;20030;-69
2023/02/13 11:17:59;;;;;;;13.63;12.77;;;;;;;;;;4996460;28;20065;-69
2023/02/13 11:20:29;;;;;;;13.40;12.53;;;;;;;;;;4995006;28;20038;-69
2023/02/13 11:22:56;;;;;;;12.70;11.90;;;;;;;;;;4998600;28;20045;-68
2023/02/13 11:25:30;;;;;;;15.48;14.38;;;;;;;;;;4997729;28;20277;-69
2023/02/13 11:28:15;;;;;;;13.02;12.23;;;;;;;;;;4996065;28;20034;-68
2023/02/13 11:30:40;;;;;;;13.73;12.85;;;;;;;;;;4997065;28;20026;-68
2023/02/13 11:33:25;;;;;;;13.27;12.48;;;;;;;;;;4998497;28;20034;-69
2023/02/13 11:36:05;;;;;;;13.52;12.63;;;;;;;;;;4997568;28;20069;-68
2023/02/13 11:38:30;;;;;;;13.15;12.35;;;;;;;;;;4998142;28;20030;-68
2023/02/13 11:41:06;;;;;;;12.98;12.18;;;;;;;;;;4996878;28;20030;-68
2023/02/13 11:43:42;;;;;;;12.80;12.00;;;;;;;;;;4996925;28;20034;-68
2023/02/13 11:46:25;;;;;;;13.32;12.50;;;;;;;;;;4996189;28;20048;-68
2023/02/13 11:49:03;;;;;;;13.63;12.80;;;;;;;;;;5003486;28;20036;-68
2023/02/13 11:51:45;;;;;;;13.82;12.93;;;;;;;;;;4995446;28;20042;-68
2023/02/13 11:54:21;;;;;;;15.50;14.40;;;;;;;;;;4995636;28;20515;-68
2023/02/13 11:56:55;;;;;;;12.90;12.10;;;;;;;;;;4996646;28;20038;-68
2023/02/13 11:59:23;;;;;;;13.30;12.50;;;;;;;;;;4994556;28;21592;-68
2023/02/13 12:02:18;;;;;;;13.65;12.75;;;;;;;;;;4999306;28;20030;-68
2023/02/13 12:04:44;;;;;;;14.35;13.40;;;;;;;;;;4994381;28;20034;-69
2023/02/13 12:07:17;;;;;;;13.85;12.90;;;;;;;;;;4995887;28;20044;-69
2023/02/13 12:09:46;;;;;;;13.75;12.75;;;;;;;;;;4996514;28;20034;-70
2023/02/13 12:12:18;;;;;;;14.05;13.18;;;;;;;;;;4992449;28;20041;-69
2023/02/13 12:14:45;;;;;;;14.45;13.48;;;;;;;;;;4994714;28;20030;-69
2023/02/13 12:17:21;;;;;;;16.27;15.02;;;;;;;;;;4993697;28;20077;-69
2023/02/13 12:19:48;;;;;;;15.15;14.25;;;;;;;;;;4995350;28;20466;-69
2023/02/13 12:22:46;;;;;;;15.07;14.15;;;;;;;;;;4996582;28;20044;-69
2023/02/13 12:25:29;;;;;;;15.02;13.93;;;;;;;;;;4994214;28;20053;-69
2023/02/13 12:28:04;;;;;;;14.50;13.60;;;;;;;;;;4995702;28;20036;-69
2023/02/13 12:30:54;;;;;;;13.57;12.75;;;;;;;;;;4996285;28;20062;-69
2023/02/13 12:33:45;;;;;;;14.67;13.77;;;;;;;;;;4996142;28;20092;-69
2023/02/13 12:36:19;;;;;;;14.70;13.70;;;;;;;;;;4990847;28;20479;-69
2023/02/13 12:39:03;;;;;;;14.48;13.57;;;;;;;;;;4996186;28;20038;-69
2023/02/13 12:42:12;;;;;;;14.23;13.32;;;;;;;;;;4993336;28;20051;-69
2023/02/13 12:44:49;;;;;;;14.10;13.20;;;;;;;;;;4962327;28;20098;-69
2023/02/13 12:47:21;;;;;;;15.50;14.40;;;;;;;;;;4992709;28;20105;-69
2023/02/13 12:49:57;;;;;;;14.35;13.45;;;;;;;;;;4999706;28;20022;-69
2023/02/13 12:52:50;;;;;;;14.57;13.68;;;;;;;;;;4993101;28;20100;-69
2023/02/13 12:55:30;;;;;;;13.10;12.30;;;;;;;;;;4993590;28;20045;-69
2023/02/13 12:58:22;;;;;;;14.23;13.43;;;;;;;;;;4995541;28;20034;-69
2023/02/13 13:01:14;;;;;;;15.20;14.27;;;;;;;;;;4995531;28;20030;-69
2023/02/13 13:04:04;;;;;;;15.02;14.13;;;;;;;;;;4995729;28;20089;-69
2023/02/13 13:07:19;;;;;;;15.23;14.32;;;;;;;;;;5002246;28;20364;-69
2023/02/13 13:10:15;;;;;;;14.05;13.25;;;;;;;;;;4980713;28;20034;-68
2023/02/13 13:12:50;;;;;;;13.43;12.55;;;;;;;;;;4986114;28;20120;-69
2023/02/13 13:15:48;;;;;;;13.25;12.45;;;;;;;;;;4993165;28;20084;-68
2023/02/13 13:18:46;;;;;;;12.68;11.88;;;;;;;;;;4994095;28;20072;-68
2023/02/13 13:21:28;;;;;;;13.63;12.80;;;;;;;;;;4976379;28;20050;-69
2023/02/13 13:24:21;;;;;;;13.15;12.35;;;;;;;;;;4994063;28;20042;-69
2023/02/13 13:26:49;;;;;;;13.45;12.65;;;;;;;;;;4994786;28;20043;-68
2023/02/13 13:29:31;;;;;;;13.55;12.65;;;;;;;;;;4993546;28;20068;-69
2023/02/13 13:32:07;;;;;;;13.40;12.57;;;;;;;;;;4995022;28;20048;-69
2023/02/13 13:34:35;;;;;;;13.45;12.65;;;;;;;;;;4993930;28;20041;-68
2023/02/13 13:37:25;;;;;;;13.70;12.90;;;;;;;;;;4996721;28;20091;-68
2023/02/13 13:40:14;;;;;;;14.98;14.07;;;;;;;;;;4992992;28;20371;-69
2023/02/13 13:43:03;;;;;;;15.07;14.18;;;;;;;;;;4994087;28;20072;-68
2023/02/13 13:45:36;;;;;;;14.88;13.88;;;;;;;;;;4994555;28;20034;-68
2023/02/13 13:48:36;;;;;;;13.57;12.77;;;;;;;;;;4994403;28;20033;-68
2023/02/13 13:51:05;;;;;;;13.15;12.35;;;;;;;;;;4995674;28;20076;-68
2023/02/13 13:53:31;;;;;;;14.15;13.07;;;;;;;;;;4996379;28;20048;-68
2023/02/13 13:55:57;;;;;;;13.73;12.93;;;;;;;;;;4995036;28;20030;-68
2023/02/13 13:58:22;;;;;;;13.48;12.68;;;;;;;;;;4990820;28;20042;-68
2023/02/13 14:01:17;;;;;;;14.18;13.38;;;;;;;;;;4995478;28;20049;-68
2023/02/13 14:03:44;;;;;;;13.00;12.20;;;;;;;;;;4989315;28;20057;-68
2023/02/13 14:06:13;;;;;;;13.07;12.27;;;;;;;;;;4994178;28;20046;-68
2023/02/13 14:08:39;;;;;;;13.80;12.98;;;;;;;;;;4994923;28;20041;-68
2023/02/13 14:11:25;;;;;;;13.27;12.48;;;;;;;;;;4992880;28;20030;-68
2023/02/13 14:13:50;;;;;;;14.48;13.68;;;;;;;;;;4993269;28;20338;-68
2023/02/13 14:16:37;;;;;;;13.30;12.50;;;;;;;;;;4994379;28;20076;-68
2023/02/13 14:19:04;;;;;;;13.48;12.68;;;;;;;;;;4993920;28;20512;-68
2023/02/13 14:21:29;;;;;;;12.50;11.80;;;;;;;;;;4994734;28;20034;-68
2023/02/13 14:23:59;;;;;;;13.80;12.98;;;;;;;;;;4992601;28;20042;-68
2023/02/13 14:26:34;;;;;;;13.07;12.17;;;;;;;;;;4993630;28;20038;-68
2023/02/13 14:29:14;;;;;;;14.07;13.07;;;;;;;;;;4994368;28;20072;-67
2023/02/13 14:31:50;;;;;;;14.30;13.48;;;;;;;;;;4996037;28;20096;-68
2023/02/13 14:34:25;;;;;;;15.43;14.43;;;;;;;;;;4993373;28;20091;-68
2023/02/13 14:37:04;;;;;;;13.75;12.88;;;;;;;;;;4994150;28;20049;-68
2023/02/13 14:39:34;;;;;;;14.40;13.40;;;;;;;;;;4997090;28;20672;-68
2023/02/13 14:42:20;;;;;;;14.93;14.02;;;;;;;;;;4995267;28;20038;-68
2023/02/13 14:44:49;;;;;;;13.05;12.25;;;;;;;;;;4990748;28;20041;-68
2023/02/13 14:47:23;;;;;;;13.05;12.25;;;;;;;;;;4991618;28;20043;-68
2023/02/13 14:49:50;;;;;;;13.95;13.15;;;;;;;;;;5000028;28;20034;-68
2023/02/13 14:52:26;;;;;;;13.00;12.20;;;;;;;;;;4992899;28;20415;-68
2023/02/13 14:54:58;;;;;;;13.45;12.40;;;;;;;;;;4998525;28;20030;-68
2023/02/13 14:57:31;;;;;;;12.70;11.95;;;;;;;;;;4994064;28;20152;-68
2023/02/13 15:00:00;;;;;;;14.05;13.20;;;;;;;;;;4994840;28;20340;-68
2023/02/13 15:02:30;;;;;;;12.70;11.93;;;;;;;;;;4993176;28;20212;-68
2023/02/13 15:05:00;;;;;;;13.30;12.45;;;;;;;;;;4994657;28;20038;-68
2023/02/13 15:07:30;;;;;;;13.25;12.45;;;;;;;;;;4992772;28;20459;-68
2023/02/13 15:10:03;;;;;;;12.67;11.90;;;;;;;;;;4992951;28;20188;-68
2023/02/13 15:12:35;;;;;;;12.90;12.10;;;;;;;;;;4994368;28;20795;-68
2023/02/13 15:15:16;;;;;;;11.63;10.93;;;;;;;;;;4995229;28;20534;-68
2023/02/13 15:17:41;;;;;;;11.98;11.27;;;;;;;;;;4991954;28;20045;-68
2023/02/13 15:20:22;;;;;;;11.70;11.00;;;;;;;;;;4992511;28;20497;-68
2023/02/13 15:22:48;;;;;;;13.38;12.57;;;;;;;;;;4992595;28;20065;-68